Time;durP1;ratioP1;P1;durP2;ratioP2;P2;SDS_P1;SDS_P2;PMS_P1;PMS_P2;Temp;Humidity;BMP_temperature;BMP_pressure;BME280_temperature;BME280_humidity;BME280_pressure;Samples;Min_cycle;Max_cycle;Signal;HPM_P1;HPM_P2
2022/12/24 00:00:26;;;;;;;37.90;19.73;;;7.50;99.90;;;;;;5018044;28;20077;-67
2022/12/24 00:02:52;;;;;;;45.28;21.33;;;7.50;99.90;;;;;;5020335;28;20161;-67
2022/12/24 00:05:18;;;;;;;34.03;19.60;;;7.60;99.90;;;;;;5019468;28;20514;-67
2022/12/24 00:07:43;;;;;;;43.97;21.25;;;7.60;99.90;;;;;;5018806;28;20037;-67
2022/12/24 00:10:09;;;;;;;46.83;21.63;;;7.70;99.90;;;;;;5021564;28;20072;-67
2022/12/24 00:12:36;;;;;;;55.40;22.70;;;7.70;99.90;;;;;;5023668;28;20524;-67
2022/12/24 00:15:03;;;;;;;58.25;23.52;;;7.70;99.90;;;;;;5019955;28;20062;-67
2022/12/24 00:17:28;;;;;;;45.55;20.88;;;7.80;99.90;;;;;;5020795;28;20056;-67
2022/12/24 00:19:54;;;;;;;50.67;21.95;;;7.70;99.90;;;;;;5020205;28;20124;-67
2022/12/24 00:22:20;;;;;;;64.90;24.27;;;7.70;99.90;;;;;;5020308;28;20070;-67
2022/12/24 00:24:45;;;;;;;45.88;21.63;;;7.80;99.90;;;;;;5019879;28;20045;-67
2022/12/24 00:27:11;;;;;;;33.53;20.30;;;7.80;99.90;;;;;;5017782;28;20038;-67
2022/12/24 00:29:37;;;;;;;48.75;22.10;;;7.80;99.90;;;;;;5019835;28;20038;-67
2022/12/24 00:32:06;;;;;;;48.03;21.80;;;7.90;99.90;;;;;;5025330;28;20037;-67
2022/12/24 00:34:33;;;;;;;45.90;22.02;;;7.90;99.90;;;;;;5018437;28;20089;-67
2022/12/24 00:36:58;;;;;;;44.40;21.85;;;7.80;99.90;;;;;;5019991;28;20107;-67
2022/12/24 00:39:24;;;;;;;53.83;22.52;;;7.90;99.90;;;;;;5021206;28;20033;-67
2022/12/24 00:41:50;;;;;;;55.83;23.33;;;7.90;99.90;;;;;;5022696;28;20259;-67
2022/12/24 00:44:16;;;;;;;50.58;22.98;;;7.90;99.90;;;;;;5020809;28;20096;-67
2022/12/24 00:46:41;;;;;;;80.03;26.08;;;8.00;99.90;;;;;;5019976;28;20034;-67
2022/12/24 00:49:09;;;;;;;59.10;24.23;;;8.00;99.90;;;;;;5022922;28;20045;-67
2022/12/24 00:51:35;;;;;;;72.82;25.65;;;7.90;99.90;;;;;;5016646;28;20052;-67
2022/12/24 00:54:02;;;;;;;50.97;22.95;;;8.00;99.90;;;;;;5017064;28;20522;-67
2022/12/24 00:56:27;;;;;;;47.33;22.67;;;8.00;99.90;;;;;;5018576;28;20447;-67
2022/12/24 00:58:54;;;;;;;73.00;26.00;;;8.10;99.90;;;;;;5022059;28;20042;-67
2022/12/24 01:01:20;;;;;;;82.30;28.85;;;8.00;99.90;;;;;;5014863;28;20120;-67
2022/12/24 01:03:46;;;;;;;77.25;26.88;;;8.10;99.90;;;;;;5022160;28;20026;-67
2022/12/24 01:06:15;;;;;;;52.83;24.42;;;8.00;99.90;;;;;;5020791;28;20437;-67
2022/12/24 01:08:41;;;;;;;60.30;25.80;;;8.10;99.90;;;;;;5017494;28;20612;-67
2022/12/24 01:11:09;;;;;;;106.13;30.73;;;8.10;99.90;;;;;;5019679;28;20041;-67
2022/12/24 01:13:35;;;;;;;74.20;27.23;;;8.10;99.90;;;;;;5018416;28;20523;-67
2022/12/24 01:16:01;;;;;;;70.05;27.73;;;8.10;99.90;;;;;;5017470;28;20461;-67
2022/12/24 01:18:27;;;;;;;76.57;27.38;;;8.10;99.90;;;;;;5021415;28;20030;-67
2022/12/24 01:21:11;;;;;;;101.78;30.10;;;8.10;99.90;;;;;;5018104;28;20037;-67
2022/12/24 01:23:36;;;;;;;83.70;28.48;;;8.20;99.90;;;;;;5022286;28;20077;-67
2022/12/24 01:26:03;;;;;;;76.50;26.60;;;8.20;99.90;;;;;;5024359;28;20036;-67
2022/12/24 01:28:30;;;;;;;78.32;28.02;;;8.20;99.90;;;;;;5016228;28;20065;-67
2022/12/24 01:30:56;;;;;;;55.33;24.08;;;8.20;99.90;;;;;;5020660;28;20060;-67
2022/12/24 01:33:21;;;;;;;69.82;25.67;;;8.20;99.90;;;;;;5018267;28;20038;-67
2022/12/24 01:35:47;;;;;;;51.28;22.88;;;8.20;99.90;;;;;;5019269;28;20473;-67
2022/12/24 01:38:14;;;;;;;39.97;20.08;;;8.30;99.90;;;;;;5017597;28;20169;-67
2022/12/24 01:43:29;;;;;;;40.20;20.33;;;8.30;99.90;;;;;;5022762;28;20389;-67
2022/12/24 01:45:58;;;;;;;36.60;19.73;;;8.30;99.90;;;;;;5022396;28;20077;-67
2022/12/24 01:48:45;;;;;;;31.98;17.60;;;8.30;99.90;;;;;;5018416;28;20512;-67
2022/12/24 01:51:23;;;;;;;49.10;20.48;;;8.40;99.90;;;;;;5035421;28;20466;-67
2022/12/24 01:53:58;;;;;;;23.25;14.82;;;8.40;99.90;;;;;;5022203;28;20099;-67
2022/12/24 01:56:25;;;;;;;26.48;15.23;;;8.40;99.90;;;;;;5034891;28;20053;-67
2022/12/24 01:58:55;;;;;;;22.73;13.90;;;8.40;99.90;;;;;;5015427;28;20042;-67
2022/12/24 02:01:22;;;;;;;24.00;13.10;;;8.40;99.90;;;;;;5018735;28;20490;-67
2022/12/24 02:03:48;;;;;;;28.38;15.00;;;8.40;99.90;;;;;;5016591;28;20042;-68
2022/12/24 02:06:16;;;;;;;27.42;13.50;;;8.40;99.90;;;;;;5018892;28;20025;-68
2022/12/24 02:08:43;;;;;;;24.55;12.85;;;8.50;99.90;;;;;;5020314;28;20141;-68
2022/12/24 02:11:16;;;;;;;25.27;13.13;;;8.50;99.90;;;;;;5020267;28;20535;-68
2022/12/24 02:13:46;;;;;;;23.83;12.60;;;8.50;99.90;;;;;;5016894;28;20041;-68
2022/12/24 02:16:30;;;;;;;19.23;11.55;;;8.50;99.90;;;;;;5013761;28;20046;-68
2022/12/24 02:19:19;;;;;;;24.88;12.40;;;8.60;99.90;;;;;;5016203;28;20084;-68
2022/12/24 02:21:52;;;;;;;23.45;11.30;;;8.60;99.90;;;;;;5016289;28;20049;-68
2022/12/24 02:24:37;;;;;;;20.60;10.10;;;8.50;99.90;;;;;;5022303;28;20406;-68
2022/12/24 02:27:18;;;;;;;;;;;8.60;99.90;;;;;;5027317;28;20418;-68
2022/12/24 02:29:50;;;;;;;20.48;9.52;;;8.60;99.90;;;;;;5035771;28;19921;-68
2022/12/24 02:32:31;;;;;;;18.60;7.63;;;8.60;99.90;;;;;;5021150;28;20605;-68
2022/12/24 02:35:01;;;;;;;26.55;6.88;;;8.70;99.90;;;;;;5019994;28;20461;-68
2022/12/24 02:37:33;;;;;;;23.10;6.95;;;8.70;99.90;;;;;;5022580;28;20041;-68
2022/12/24 02:40:15;;;;;;;32.22;6.97;;;8.70;99.90;;;;;;5020410;28;20045;-68
2022/12/24 02:42:44;;;;;;;41.35;6.00;;;8.70;99.90;;;;;;5018569;28;20893;-68
2022/12/24 02:45:15;;;;;;;41.20;5.82;;;8.70;99.90;;;;;;5019761;28;20046;-68
2022/12/24 02:47:43;;;;;;;35.70;5.32;;;8.70;99.90;;;;;;5024064;28;20070;-68
2022/12/24 02:50:11;;;;;;;40.08;5.60;;;8.70;99.90;;;;;;5013519;28;20046;-68
2022/12/24 02:52:40;;;;;;;49.08;5.30;;;8.70;99.90;;;;;;5021831;28;20080;-68
2022/12/24 02:55:28;;;;;;;45.90;6.18;;;8.70;99.90;;;;;;5023788;28;20049;-68
2022/12/24 02:58:18;;;;;;;45.88;5.93;;;8.70;99.90;;;;;;5015651;28;20040;-68
2022/12/24 03:01:14;;;;;;;42.75;6.65;;;8.60;99.90;;;;;;5021749;28;20390;-68
2022/12/24 03:04:10;;;;;;;47.20;6.38;;;8.50;99.90;;;;;;5022148;28;20108;-68
2022/12/24 03:06:49;;;;;;;44.88;6.22;;;8.50;99.90;;;;;;5017192;28;20041;-68
2022/12/24 03:09:23;;;;;;;49.83;6.13;;;8.50;99.90;;;;;;5017484;28;20046;-68
2022/12/24 03:11:58;;;;;;;42.67;5.45;;;8.50;99.90;;;;;;5019058;28;20488;-68
2022/12/24 03:14:26;;;;;;;46.95;5.45;;;8.50;99.90;;;;;;5018005;28;20062;-68
2022/12/24 03:16:52;;;;;;;45.92;6.13;;;8.40;99.90;;;;;;5018242;28;20050;-68
2022/12/24 03:19:19;;;;;;;41.10;5.20;;;8.50;99.90;;;;;;5016952;28;20042;-68
2022/12/24 03:21:46;;;;;;;47.15;5.43;;;8.40;99.90;;;;;;5015632;28;20157;-68
2022/12/24 03:24:12;;;;;;;41.03;5.30;;;8.50;99.90;;;;;;5012977;28;20046;-68
2022/12/24 03:26:39;;;;;;;45.03;5.32;;;8.50;99.90;;;;;;5017400;28;20040;-68
2022/12/24 03:29:08;;;;;;;40.03;5.07;;;8.50;99.90;;;;;;5021216;28;20042;-68
2022/12/24 03:31:45;;;;;;;32.45;4.53;;;8.50;99.90;;;;;;5018064;28;20053;-68
2022/12/24 03:34:12;;;;;;;36.00;5.32;;;8.50;99.90;;;;;;5013202;28;20111;-68
2022/12/24 03:36:38;;;;;;;38.67;6.80;;;8.60;99.90;;;;;;5016900;28;20520;-68
2022/12/24 03:39:05;;;;;;;45.15;5.85;;;8.60;99.90;;;;;;5015511;28;20045;-68
2022/12/24 03:41:31;;;;;;;41.40;5.50;;;8.70;99.90;;;;;;5019168;28;20129;-68
2022/12/24 03:43:57;;;;;;;46.97;5.28;;;8.80;99.90;;;;;;5025984;28;20103;-68
2022/12/24 03:46:22;;;;;;;36.58;6.38;;;8.80;99.90;;;;;;5018768;28;20505;-68
2022/12/24 03:48:48;;;;;;;31.08;5.38;;;8.70;99.90;;;;;;5024571;28;20457;-68
2022/12/24 03:51:22;;;;;;;42.05;6.13;;;8.70;99.90;;;;;;5021574;28;20053;-68
2022/12/24 03:53:48;;;;;;;38.42;6.20;;;8.70;99.90;;;;;;5031097;28;20396;-68
2022/12/24 03:56:14;;;;;;;35.20;5.40;;;8.70;99.90;;;;;;5021275;28;20141;-68
2022/12/24 03:58:39;;;;;;;36.25;4.88;;;8.70;99.90;;;;;;5022533;28;20128;-68
2022/12/24 04:01:05;;;;;;;39.50;5.78;;;8.70;99.90;;;;;;5021230;28;20112;-68
2022/12/24 04:03:31;;;;;;;34.40;5.00;;;8.70;99.90;;;;;;5020963;28;20080;-68
2022/12/24 04:06:02;;;;;;;35.72;5.40;;;8.60;99.90;;;;;;5020592;28;20044;-67
2022/12/24 04:08:27;;;;;;;32.08;4.93;;;8.70;99.90;;;;;;5024659;28;20084;-68
2022/12/24 04:10:53;;;;;;;46.15;5.10;;;8.60;99.90;;;;;;5019730;28;20038;-67
2022/12/24 04:13:19;;;;;;;31.77;5.28;;;8.60;99.90;;;;;;5021200;28;20043;-67
2022/12/24 04:15:44;;;;;;;43.25;6.00;;;8.60;99.90;;;;;;5019333;28;20061;-67
2022/12/24 04:18:10;;;;;;;41.15;5.78;;;8.60;99.90;;;;;;5022511;28;20047;-67
2022/12/24 04:20:36;;;;;;;38.92;6.88;;;8.60;99.90;;;;;;5020834;28;20052;-67
2022/12/24 04:23:01;;;;;;;46.40;5.75;;;8.60;99.90;;;;;;5022361;28;20068;-67
2022/12/24 04:25:27;;;;;;;41.92;5.63;;;8.50;99.90;;;;;;5003802;28;20038;-67
2022/12/24 04:27:53;;;;;;;46.67;5.40;;;8.40;99.90;;;;;;5021117;28;20037;-67
2022/12/24 04:30:18;;;;;;;42.00;6.07;;;8.50;99.90;;;;;;5019972;28;20041;-67
2022/12/24 04:32:44;;;;;;;34.20;5.78;;;8.40;99.90;;;;;;5017975;28;20026;-67
2022/12/24 04:35:10;;;;;;;53.53;6.47;;;8.40;99.90;;;;;;5017193;28;20041;-67
2022/12/24 04:37:35;;;;;;;48.15;5.85;;;8.30;99.90;;;;;;5017767;28;20508;-67
2022/12/24 04:40:01;;;;;;;48.17;6.80;;;8.30;99.90;;;;;;5020306;28;20127;-67
2022/12/24 04:42:27;;;;;;;49.20;6.03;;;8.40;99.90;;;;;;4999631;28;20081;-67
2022/12/24 04:44:52;;;;;;;50.05;6.45;;;8.40;99.90;;;;;;5019335;28;20038;-67
2022/12/24 04:47:18;;;;;;;38.85;6.10;;;8.40;99.90;;;;;;5019157;28;20037;-67
2022/12/24 04:49:44;;;;;;;51.90;6.30;;;8.40;99.90;;;;;;5022147;28;20395;-67
2022/12/24 04:52:09;;;;;;;46.42;6.15;;;8.40;99.90;;;;;;5016324;28;20073;-67
2022/12/24 04:54:35;;;;;;;52.25;6.30;;;8.40;99.90;;;;;;5022193;28;20037;-67
2022/12/24 04:57:01;;;;;;;48.72;5.70;;;8.40;99.90;;;;;;5020645;28;20037;-67
2022/12/24 04:59:26;;;;;;;48.00;6.03;;;8.50;99.90;;;;;;5018117;28;20042;-67
2022/12/24 05:01:52;;;;;;;45.65;5.60;;;8.40;99.90;;;;;;5021312;28;20046;-67
2022/12/24 05:04:18;;;;;;;57.20;5.88;;;8.40;99.90;;;;;;5017191;28;20454;-68
2022/12/24 05:06:43;;;;;;;41.83;5.40;;;8.40;99.90;;;;;;5024844;28;20037;-67
2022/12/24 05:09:09;;;;;;;58.90;6.80;;;8.50;99.90;;;;;;5017865;28;20124;-67
2022/12/24 05:11:35;;;;;;;31.40;5.80;;;8.50;99.90;;;;;;5020637;28;20494;-67
2022/12/24 05:14:00;;;;;;;50.50;6.00;;;8.50;99.90;;;;;;5019094;28;20295;-67
2022/12/24 05:16:26;;;;;;;51.28;7.63;;;8.60;99.90;;;;;;5020910;28;20337;-67
2022/12/24 05:18:52;;;;;;;40.47;6.03;;;8.60;99.90;;;;;;5020325;28;20037;-67
2022/12/24 05:21:23;;;;;;;47.75;6.10;;;8.50;99.90;;;;;;5015789;28;20077;-67
2022/12/24 05:26:49;;;;;;;49.63;6.50;;;8.60;99.90;;;;;;5023735;28;20093;-67
2022/12/24 05:29:14;;;;;;;46.67;6.50;;;8.60;99.90;;;;;;5014879;28;20045;-67
2022/12/24 05:31:42;;;;;;;52.20;6.50;;;8.60;99.90;;;;;;5021540;28;20476;-67
2022/12/24 05:34:09;;;;;;;52.05;6.10;;;8.60;99.90;;;;;;5015866;28;20058;-67
2022/12/24 05:36:35;;;;;;;42.22;5.65;;;8.60;99.90;;;;;;5021755;28;20115;-67
2022/12/24 05:39:01;;;;;;;42.80;6.35;;;8.60;99.90;;;;;;5018128;28;20049;-65
2022/12/24 05:41:27;;;;;;;47.47;6.40;;;8.60;99.90;;;;;;5022708;28;20030;-66
2022/12/24 05:43:53;;;;;;;51.67;5.78;;;8.70;99.90;;;;;;5017701;28;20121;-66
2022/12/24 05:46:20;;;;;;;55.60;6.85;;;8.70;99.90;;;;;;5019054;28;20065;-66
2022/12/24 05:48:47;;;;;;;44.22;5.97;;;8.60;99.90;;;;;;5021479;28;20102;-66
2022/12/24 05:51:17;;;;;;;43.50;5.82;;;8.60;99.90;;;;;;5017124;28;20049;-66
2022/12/24 05:53:43;;;;;;;58.00;6.78;;;8.70;99.90;;;;;;5017750;28;20050;-66
2022/12/24 05:56:11;;;;;;;42.83;6.03;;;8.70;99.90;;;;;;5018118;28;20045;-66
2022/12/24 05:58:38;;;;;;;52.70;6.90;;;8.70;99.90;;;;;;5022397;28;20578;-66
2022/12/24 06:01:05;;;;;;;66.47;7.07;;;8.70;99.90;;;;;;5019880;28;20084;-66
2022/12/24 06:03:32;;;;;;;53.13;6.70;;;8.70;99.90;;;;;;5019548;28;20029;-66
2022/12/24 06:06:00;;;;;;;51.85;6.70;;;8.70;99.90;;;;;;5018413;28;20130;-66
2022/12/24 06:08:27;;;;;;;52.05;7.13;;;8.70;99.90;;;;;;5024862;28;20397;-66
2022/12/24 06:11:01;;;;;;;51.58;7.13;;;8.80;99.90;;;;;;5015648;28;20048;-66
2022/12/24 06:13:27;;;;;;;51.15;7.30;;;8.70;99.90;;;;;;5032160;28;20042;-66
2022/12/24 06:15:54;;;;;;;56.50;7.93;;;8.80;99.90;;;;;;5021353;28;20381;-66
2022/12/24 06:18:20;;;;;;;49.15;7.57;;;8.80;99.90;;;;;;5021900;28;20687;-66
2022/12/24 06:20:50;;;;;;;52.80;8.00;;;8.70;99.90;;;;;;5018090;28;20508;-66
2022/12/24 06:23:15;;;;;;;53.80;7.68;;;8.80;99.90;;;;;;5018823;28;20053;-66
2022/12/24 06:25:41;;;;;;;52.45;7.97;;;8.80;99.90;;;;;;5017865;28;20129;-66
2022/12/24 06:28:07;;;;;;;57.40;8.00;;;8.80;99.90;;;;;;5019644;28;20048;-66
2022/12/24 06:30:32;;;;;;;40.83;7.38;;;8.80;99.90;;;;;;5015729;28;20033;-66
2022/12/24 06:32:58;;;;;;;60.65;7.30;;;8.90;99.90;;;;;;5013771;28;20099;-66
2022/12/24 06:35:24;;;;;;;45.95;6.82;;;8.80;99.90;;;;;;5016755;28;20037;-66
2022/12/24 06:37:49;;;;;;;46.38;7.57;;;8.80;99.90;;;;;;5022529;28;20112;-66
2022/12/24 06:40:15;;;;;;;46.05;7.30;;;8.80;99.90;;;;;;5016677;28;20075;-66
2022/12/24 06:42:41;;;;;;;48.10;7.72;;;8.80;99.90;;;;;;5016878;28;20060;-66
2022/12/24 06:45:07;;;;;;;43.15;6.65;;;8.80;99.90;;;;;;5017628;28;20037;-66
2022/12/24 06:47:33;;;;;;;47.30;7.32;;;8.90;99.90;;;;;;5005280;28;20111;-66
2022/12/24 06:49:58;;;;;;;48.90;6.38;;;8.80;99.90;;;;;;5017574;28;20041;-67
2022/12/24 06:52:24;;;;;;;52.90;7.85;;;8.90;99.90;;;;;;5017846;28;20091;-67
2022/12/24 06:54:50;;;;;;;46.45;7.28;;;8.90;99.90;;;;;;5019385;28;20042;-66
2022/12/24 06:57:15;;;;;;;49.58;7.32;;;8.90;99.90;;;;;;5021916;28;20037;-66
2022/12/24 06:59:41;;;;;;;37.63;6.38;;;8.80;99.90;;;;;;5018358;28;20034;-66
2022/12/24 07:02:08;;;;;;;54.35;7.30;;;8.90;99.90;;;;;;5018642;28;20088;-66
2022/12/24 07:04:34;;;;;;;42.30;6.60;;;8.90;99.90;;;;;;5015952;28;20172;-66
2022/12/24 07:07:00;;;;;;;45.97;6.78;;;8.90;99.90;;;;;;5020846;28;20068;-66
2022/12/24 07:09:25;;;;;;;49.17;7.43;;;8.90;99.90;;;;;;5014393;28;20038;-66
2022/12/24 07:11:51;;;;;;;48.38;6.00;;;8.80;99.90;;;;;;5016150;28;20038;-66
2022/12/24 07:14:17;;;;;;;38.35;5.28;;;8.80;99.90;;;;;;5021890;28;20081;-66
2022/12/24 07:16:43;;;;;;;44.20;6.85;;;8.80;99.90;;;;;;5023424;28;20038;-66
2022/12/24 07:19:08;;;;;;;34.58;5.25;;;8.80;99.90;;;;;;5020479;28;20058;-66
2022/12/24 07:21:34;;;;;;;52.13;5.78;;;8.90;99.90;;;;;;5022050;28;20030;-66
2022/12/24 07:24:00;;;;;;;46.97;5.63;;;8.80;99.90;;;;;;5022369;28;20107;-66
2022/12/24 07:26:25;;;;;;;37.35;5.50;;;8.80;99.90;;;;;;5024597;28;20452;-66
2022/12/24 07:28:51;;;;;;;46.05;6.45;;;8.80;99.90;;;;;;5018869;28;20124;-66
2022/12/24 07:31:17;;;;;;;37.03;5.60;;;8.80;99.90;;;;;;5020683;28;20140;-66
2022/12/24 07:33:43;;;;;;;41.22;5.80;;;8.80;99.90;;;;;;5024476;28;20041;-66
2022/12/24 07:36:14;;;;;;;40.67;6.03;;;8.80;99.90;;;;;;5023104;28;20140;-66
2022/12/24 07:38:40;;;;;;;37.88;5.93;;;8.80;99.90;;;;;;5020296;28;20482;-66
2022/12/24 07:41:06;;;;;;;49.00;6.05;;;8.80;99.90;;;;;;5019681;28;20034;-66
2022/12/24 07:43:33;;;;;;;46.70;6.55;;;8.80;99.90;;;;;;5023010;28;20055;-66
2022/12/24 07:45:58;;;;;;;43.55;5.85;;;8.80;99.90;;;;;;5023039;28;20469;-66
2022/12/24 07:48:27;;;;;;;37.25;5.93;;;8.80;99.90;;;;;;5023326;28;20104;-66
2022/12/24 07:50:53;;;;;;;48.50;6.43;;;8.80;99.90;;;;;;5022065;28;20461;-66
2022/12/24 07:53:19;;;;;;;45.92;6.30;;;8.80;99.90;;;;;;5023445;28;20269;-66
2022/12/24 07:55:45;;;;;;;45.30;6.57;;;8.80;99.90;;;;;;5021049;28;20045;-66
2022/12/24 07:58:11;;;;;;;44.38;6.40;;;8.80;99.90;;;;;;5022535;28;20041;-66
2022/12/24 08:00:36;;;;;;;46.58;5.90;;;8.80;99.90;;;;;;5023472;28;20034;-66
2022/12/24 08:03:02;;;;;;;49.53;6.38;;;8.80;99.90;;;;;;5022412;28;20092;-66
2022/12/24 08:05:33;;;;;;;45.78;6.70;;;8.80;99.90;;;;;;5022168;28;20045;-66
2022/12/24 08:07:59;;;;;;;43.20;6.55;;;8.90;99.90;;;;;;5025268;28;20099;-66
2022/12/24 08:10:25;;;;;;;47.70;6.43;;;8.90;99.90;;;;;;5036247;28;20037;-66
2022/12/24 08:12:50;;;;;;;46.60;6.18;;;8.80;99.90;;;;;;5022385;28;20034;-66
2022/12/24 08:15:16;;;;;;;46.83;6.35;;;8.80;99.90;;;;;;5018676;28;20046;-66
2022/12/24 08:17:43;;;;;;;45.70;6.78;;;8.80;99.90;;;;;;5023679;28;20053;-66
2022/12/24 08:20:09;;;;;;;45.50;6.22;;;8.80;99.90;;;;;;5023409;28;20463;-66
2022/12/24 08:22:34;;;;;;;42.25;5.35;;;8.80;99.90;;;;;;5023572;28;20278;-66
2022/12/24 08:25:00;;;;;;;50.33;9.10;;;8.80;99.90;;;;;;5019592;28;20045;-66
2022/12/24 08:27:26;;;;;;;35.92;6.80;;;8.80;99.90;;;;;;5018929;28;20078;-66
2022/12/24 08:29:52;;;;;;;51.13;7.97;;;8.80;99.90;;;;;;5020855;28;20045;-66
2022/12/24 08:32:17;;;;;;;47.65;6.55;;;8.80;99.90;;;;;;5018773;28;20111;-66
2022/12/24 08:34:43;;;;;;;38.53;6.05;;;8.80;99.90;;;;;;5021073;28;20162;-66
2022/12/24 08:37:09;;;;;;;48.00;6.45;;;8.90;99.90;;;;;;5020704;28;20108;-66
2022/12/24 08:39:34;;;;;;;53.40;6.78;;;8.90;99.90;;;;;;5022817;28;20056;-66
2022/12/24 08:42:00;;;;;;;41.22;6.18;;;8.90;99.90;;;;;;5022254;28;20371;-66
2022/12/24 08:44:26;;;;;;;49.15;6.72;;;8.90;99.90;;;;;;5020879;28;20038;-66
2022/12/24 08:46:51;;;;;;;47.35;6.28;;;8.90;99.90;;;;;;5018801;28;20041;-66
2022/12/24 08:49:17;;;;;;;56.95;7.47;;;8.90;99.90;;;;;;5021197;28;20124;-66
2022/12/24 08:51:43;;;;;;;46.13;5.90;;;8.90;99.90;;;;;;5023617;28;20120;-66
2022/12/24 08:54:08;;;;;;;47.92;6.78;;;8.90;99.90;;;;;;5017572;28;20453;-66
2022/12/24 08:56:34;;;;;;;38.47;5.68;;;8.90;99.90;;;;;;5018574;28;20099;-66
2022/12/24 08:59:01;;;;;;;53.83;6.80;;;9.00;99.90;;;;;;5023720;28;20071;-66
2022/12/24 09:01:26;;;;;;;46.95;6.22;;;9.00;99.90;;;;;;5022490;28;20041;-66
2022/12/24 09:03:52;;;;;;;46.38;7.65;;;9.00;99.90;;;;;;5022193;28;20390;-66
2022/12/24 09:06:18;;;;;;;52.45;6.97;;;9.10;99.90;;;;;;5020875;28;20054;-66
2022/12/24 09:08:43;;;;;;;44.97;7.00;;;9.10;99.90;;;;;;5022478;28;20528;-66
2022/12/24 09:11:13;;;;;;;47.08;7.38;;;9.20;99.90;;;;;;5022151;28;20041;-66
2022/12/24 09:13:39;;;;;;;60.97;8.25;;;9.20;99.90;;;;;;5016880;28;20078;-66
2022/12/24 09:16:06;;;;;;;42.45;7.18;;;9.20;99.90;;;;;;5017879;28;20069;-66
2022/12/24 09:18:32;;;;;;;42.80;6.80;;;9.20;99.90;;;;;;5019821;28;20040;-67
2022/12/24 09:21:06;;;;;;;47.17;7.50;;;9.20;99.90;;;;;;5020082;28;20054;-66
2022/12/24 09:23:35;;;;;;;56.67;8.95;;;9.30;99.90;;;;;;5022166;28;20080;-66
2022/12/24 09:26:14;;;;;;;47.97;14.35;;;9.20;99.90;;;;;;5018029;28;20037;-66
2022/12/24 09:28:39;;;;;;;43.83;7.45;;;9.20;99.90;;;;;;5018838;28;20136;-66
2022/12/24 09:31:05;;;;;;;47.95;8.18;;;9.30;99.90;;;;;;5017574;28;20125;-66
2022/12/24 09:33:34;;;;;;;52.10;8.25;;;9.30;99.90;;;;;;5018118;28;20065;-66
2022/12/24 09:36:00;;;;;;;45.20;8.07;;;9.40;99.90;;;;;;5015994;28;20414;-66
2022/12/24 09:38:26;;;;;;;58.85;8.30;;;9.40;99.90;;;;;;5018646;28;20081;-66
2022/12/24 09:40:53;;;;;;;54.70;7.72;;;9.40;99.90;;;;;;5018804;28;20310;-66
2022/12/24 09:43:25;;;;;;;44.15;6.30;;;9.40;99.90;;;;;;5026140;28;20053;-68
2022/12/24 09:46:21;;;;;;;41.10;5.80;;;9.40;99.90;;;;;;5023749;28;20045;-67
2022/12/24 09:48:51;;;;;;;30.77;4.80;;;9.30;99.90;;;;;;5019126;28;20513;-67
2022/12/24 09:51:50;;;;;;;41.03;6.13;;;9.30;99.90;;;;;;5019957;28;20037;-67
2022/12/24 09:54:33;;;;;;;45.15;5.88;;;9.30;99.90;;;;;;5036991;28;20060;-67
2022/12/24 09:57:07;;;;;;;31.73;5.72;;;9.20;99.90;;;;;;5024990;28;20041;-67
2022/12/24 09:59:42;;;;;;;43.80;5.68;;;9.30;99.90;;;;;;5025864;28;20135;-67
2022/12/24 10:02:14;;;;;;;44.15;5.10;;;9.20;99.90;;;;;;5035604;28;20250;-67
2022/12/24 10:04:41;;;;;;;33.45;4.65;;;9.30;99.90;;;;;;5024104;28;20411;-67
2022/12/24 10:07:41;;;;;;;35.83;4.95;;;9.30;99.90;;;;;;5015884;28;20041;-67
2022/12/24 10:11:06;;;;;;;37.88;4.80;;;9.30;99.90;;;;;;5019416;28;20068;-67
2022/12/24 10:13:32;;;;;;;41.58;5.63;;;9.40;99.90;;;;;;5043118;28;20155;-67
2022/12/24 10:16:26;;;;;;;35.92;5.97;;;9.40;99.90;;;;;;5020282;28;20042;-67
2022/12/24 10:19:30;;;;;;;37.28;5.68;;;9.40;99.90;;;;;;5013871;28;20045;-67
2022/12/24 10:22:06;;;;;;;32.10;5.35;;;9.50;99.90;;;;;;5011879;28;20050;-67
2022/12/24 10:24:49;;;;;;;41.50;5.35;;;9.50;99.90;;;;;;5015151;28;20038;-67
2022/12/24 10:27:18;;;;;;;45.00;5.97;;;9.60;99.90;;;;;;5015871;28;20516;-67
2022/12/24 10:29:52;;;;;;;42.33;5.47;;;9.60;99.90;;;;;;5014612;28;20037;-67
2022/12/24 10:32:28;;;;;;;33.58;5.05;;;9.60;99.90;;;;;;5012394;28;20084;-67
2022/12/24 10:35:03;;;;;;;45.05;4.70;;;9.60;99.90;;;;;;5012240;28;20046;-67
2022/12/24 10:37:29;;;;;;;;;;;9.60;99.90;;;;;;5015581;28;20085;-67
2022/12/24 10:39:56;;;;;;;35.13;4.90;;;9.70;99.90;;;;;;5016480;28;20003;-67
2022/12/24 10:42:26;;;;;;;47.63;5.70;;;9.70;99.90;;;;;;5012136;28;20065;-67
2022/12/24 10:44:56;;;;;;;33.15;4.53;;;9.70;99.90;;;;;;5012315;28;20120;-67
2022/12/24 10:47:23;;;;;;;46.78;6.07;;;9.80;99.90;;;;;;5017496;28;20393;-67
2022/12/24 10:50:00;;;;;;;43.85;5.45;;;9.90;99.90;;;;;;5015523;28;20064;-67
2022/12/24 10:52:31;;;;;;;44.88;5.75;;;9.70;99.90;;;;;;5019568;28;20055;-67
2022/12/24 10:55:16;;;;;;;48.70;5.45;;;9.70;99.90;;;;;;5018560;28;20041;-67
2022/12/24 10:57:42;;;;;;;41.10;6.07;;;9.80;99.90;;;;;;5017337;28;20045;-67
2022/12/24 11:00:19;;;;;;;57.08;7.68;;;9.70;99.90;;;;;;5019774;28;20080;-67
2022/12/24 11:02:47;;;;;;;50.22;7.60;;;9.70;99.90;;;;;;5017389;28;20048;-67
2022/12/24 11:05:31;;;;;;;44.63;6.25;;;9.70;99.90;;;;;;5018907;28;20137;-67
2022/12/24 11:08:16;;;;;;;54.72;6.63;;;9.70;99.90;;;;;;5018570;28;20041;-67
2022/12/24 11:10:44;;;;;;;;;;;9.80;99.90;;;;;;5016547;28;20112;-67
2022/12/24 11:13:28;;;;;;;51.67;7.78;;;9.70;99.90;;;;;;5012838;28;19960;-67
2022/12/24 11:16:16;;;;;;;48.00;6.45;;;9.70;99.90;;;;;;5018626;28;20049;-67
2022/12/24 11:18:51;;;;;;;50.08;10.15;;;9.70;99.90;;;;;;5016519;28;20145;-68
2022/12/24 11:21:26;;;;;;;45.72;6.45;;;9.70;99.90;;;;;;5018504;28;20046;-68
2022/12/24 11:23:58;;;;;;;44.00;6.60;;;9.60;99.90;;;;;;5018922;28;20091;-68
2022/12/24 11:26:27;;;;;;;43.63;6.25;;;9.70;99.90;;;;;;5020620;28;20110;-68
2022/12/24 11:29:15;;;;;;;44.33;5.95;;;9.60;99.90;;;;;;5015159;28;20045;-68
2022/12/24 11:31:45;;;;;;;48.80;5.82;;;9.70;99.90;;;;;;5012042;28;20053;-68
2022/12/24 11:34:30;;;;;;;47.17;6.75;;;9.70;99.90;;;;;;5020008;28;20079;-68
2022/12/24 11:37:23;;;;;;;39.45;5.82;;;9.70;99.90;;;;;;5017359;28;20358;-68
2022/12/24 11:39:58;;;;;;;36.22;5.18;;;9.80;99.90;;;;;;5022430;28;20048;-68
2022/12/24 11:42:31;;;;;;;33.40;4.68;;;9.80;99.90;;;;;;5016189;28;20048;-68
2022/12/24 11:45:00;;;;;;;26.23;4.40;;;9.80;99.90;;;;;;5015654;28;20068;-68
2022/12/24 11:47:37;;;;;;;36.83;5.47;;;9.80;99.90;;;;;;5017644;28;20033;-68
2022/12/24 11:50:24;;;;;;;32.25;4.97;;;9.80;99.90;;;;;;5018927;28;20037;-67
2022/12/24 11:52:59;;;;;;;42.03;6.18;;;9.80;99.90;;;;;;5017274;28;20482;-67
2022/12/24 11:55:45;;;;;;;;;;;9.80;99.90;;;;;;5018821;28;20038;-68
2022/12/24 11:58:36;;;;;;;34.88;4.40;;;9.70;99.90;;;;;;5020095;28;19928;-67
2022/12/24 12:01:11;;;;;;;34.80;5.60;;;9.80;99.90;;;;;;5017942;28;20026;-68
2022/12/24 12:03:46;;;;;;;29.50;4.90;;;9.90;99.90;;;;;;5021228;28;20075;-68
2022/12/24 12:06:18;;;;;;;26.08;4.28;;;9.90;99.90;;;;;;5021536;28;20629;-68
2022/12/24 12:08:45;;;;;;;30.75;4.70;;;9.90;99.90;;;;;;5022424;28;20057;-68
2022/12/24 12:11:13;;;;;;;38.17;5.18;;;9.80;99.90;;;;;;5019171;28;20037;-68
2022/12/24 12:13:40;;;;;;;23.88;3.97;;;9.80;99.90;;;;;;5020212;28;20053;-67
2022/12/24 12:16:59;;;;;;;27.50;4.38;;;9.80;99.90;;;;;;5019154;28;20081;-68
2022/12/24 12:19:26;;;;;;;30.40;4.85;;;9.80;99.90;;;;;;5001257;28;20045;-68
2022/12/24 12:21:52;;;;;;;33.05;4.45;;;9.70;99.90;;;;;;5021424;28;20053;-68
2022/12/24 12:24:32;;;;;;;30.33;4.90;;;9.70;99.90;;;;;;5024283;28;20041;-68
2022/12/24 12:27:10;;;;;;;28.40;4.47;;;9.70;99.90;;;;;;5026445;28;20477;-68
2022/12/24 12:29:43;;;;;;;30.48;4.22;;;9.80;99.90;;;;;;5019379;28;20740;-68
2022/12/24 12:32:25;;;;;;;20.23;3.80;;;9.90;99.90;;;;;;5035845;28;20060;-68
2022/12/24 12:35:04;;;;;;;31.30;4.82;;;9.90;99.90;;;;;;5019429;28;20424;-67
2022/12/24 12:37:37;;;;;;;26.60;4.00;;;9.90;99.90;;;;;;5023851;28;20188;-68
2022/12/24 12:40:11;;;;;;;26.38;4.53;;;9.90;99.90;;;;;;5022365;28;20037;-68
2022/12/24 12:42:42;;;;;;;33.40;4.47;;;9.80;99.90;;;;;;5025231;28;20171;-68
2022/12/24 12:45:26;;;;;;;23.95;4.40;;;9.80;99.90;;;;;;5019662;28;20061;-68
2022/12/24 12:48:21;;;;;;;38.60;6.07;;;9.80;99.90;;;;;;5021099;28;20045;-68
2022/12/24 12:50:53;;;;;;;31.38;5.00;;;9.80;99.90;;;;;;5024103;28;20378;-67
2022/12/24 12:53:41;;;;;;;29.27;4.93;;;9.80;99.90;;;;;;5023036;28;20049;-67
2022/12/24 12:56:16;;;;;;;27.10;4.05;;;9.80;99.90;;;;;;5021986;28;20056;-68
2022/12/24 12:59:16;;;;;;;29.98;4.40;;;9.80;99.90;;;;;;5022081;28;20086;-67
2022/12/24 13:02:11;;;;;;;24.70;3.90;;;9.80;99.90;;;;;;5015374;28;20049;-67
2022/12/24 13:05:03;;;;;;;27.42;4.80;;;9.80;99.90;;;;;;5023370;28;20041;-67
2022/12/24 13:07:48;;;;;;;28.50;4.30;;;9.80;99.90;;;;;;5020172;28;20061;-67